Time;durP1;ratioP1;P1;durP2;ratioP2;P2;SDS_P1;SDS_P2;PMS_P1;PMS_P2;Temp;Humidity;BMP_temperature;BMP_pressure;BME280_temperature;BME280_humidity;BME280_pressure;Samples;Min_cycle;Max_cycle;Signal;HPM_P1;HPM_P2
2022/11/27 00:01:33;;;;;;;;;;;6.70;67.40;;;1.90;100.00;96664.84;5010892;28;19920;-47
2022/11/27 00:04:07;;;;;;;;;;;6.80;67.50;;;1.95;100.00;96663.31;5014738;28;19913;-49
2022/11/27 00:06:35;;;;;;;;;;;6.80;67.50;;;1.97;100.00;96649.97;5005267;28;19916;-51
2022/11/27 00:09:05;;;;;;;;;;;6.80;67.40;;;1.97;100.00;96655.22;5002353;28;19943;-48
2022/11/27 00:11:34;;;;;;;;;;;6.80;67.40;;;2.02;100.00;96658.13;5032491;28;19908;-49
2022/11/27 00:14:00;;;;;;;;;;;6.90;67.40;;;2.02;100.00;96653.69;4987014;28;19980;-48
2022/11/27 00:16:27;;;;;;;;;;;6.90;67.40;;;2.03;100.00;96663.19;5031690;28;19912;-48
2022/11/27 00:18:53;;;;;;;;;;;7.00;67.50;;;2.07;100.00;96659.22;5005471;28;19913;-50
2022/11/27 00:21:23;;;;;;;;;;;7.00;67.40;;;2.03;100.00;96655.31;4991541;28;19920;-51
2022/11/27 00:23:55;;;;;;;;;;;7.00;67.40;;;2.06;100.00;96659.38;5014582;28;20013;-48
2022/11/27 00:26:22;;;;;;;;;;;7.00;67.30;;;2.08;100.00;96652.13;4993210;28;19908;-48
2022/11/27 00:28:51;;;;;;;;;;;7.00;67.40;;;2.08;100.00;96644.25;4997383;28;19909;-51
2022/11/27 00:31:21;;;;;;;;;;;7.00;67.30;;;2.06;100.00;96646.25;5019483;28;19920;-51
2022/11/27 00:33:55;;;;;;;;;;;7.00;67.30;;;2.05;100.00;96634.91;5026862;28;19943;-50
2022/11/27 00:36:21;;;;;;;;;;;7.00;67.30;;;2.04;100.00;96635.13;5025537;28;20047;-49
2022/11/27 00:38:47;;;;;;;;;;;7.00;67.30;;;1.96;100.00;96625.50;5020897;28;20007;-52
2022/11/27 00:41:22;;;;;;;;;;;7.00;67.30;;;1.98;100.00;96617.47;5031278;28;20004;-53
2022/11/27 00:43:50;;;;;;;;;;;7.00;67.30;;;1.97;100.00;96624.50;5015665;28;20379;-53
2022/11/27 00:46:23;;;;;;;;;;;6.90;67.30;;;1.92;100.00;96612.94;5029113;28;19915;-53
2022/11/27 00:48:52;;;;;;;;;;;6.90;67.40;;;1.96;100.00;96612.38;5029146;28;20330;-53
2022/11/27 00:51:21;;;;;;;;;;;6.90;67.40;;;1.95;100.00;96616.00;5017896;28;19916;-53
2022/11/27 00:53:47;;;;;;;;;;;6.90;67.50;;;1.89;100.00;96610.69;5013515;28;20003;-49
2022/11/27 00:56:25;;;;;;;;;;;6.90;67.50;;;1.88;100.00;96607.25;4985247;28;19912;-57
2022/11/27 00:58:52;;;;;;;;;;;6.90;67.50;;;1.88;100.00;96612.50;5013068;28;19908;-52
2022/11/27 01:01:24;;;;;;;;;;;6.80;67.50;;;1.91;100.00;96600.78;5010017;28;19909;-49
2022/11/27 01:03:58;;;;;;;;;;;6.80;67.60;;;1.87;100.00;96607.41;5031050;28;19909;-50
2022/11/27 01:06:26;;;;;;;;;;;6.80;67.50;;;1.80;100.00;96605.53;5008365;28;19917;-49
2022/11/27 01:08:52;;;;;;;;;;;6.90;67.60;;;1.82;100.00;96603.53;4983342;28;20006;-48
2022/11/27 01:11:31;;;;;;;;;;;6.80;67.60;;;1.77;100.00;96605.09;5013289;28;19912;-54
2022/11/27 01:14:05;;;;;;;;;;;6.80;67.60;;;1.86;100.00;96601.34;5019910;28;19916;-48
2022/11/27 01:16:34;;;;;;;;;;;6.80;67.70;;;1.88;100.00;96588.84;5030369;28;20400;-51
2022/11/27 01:19:04;;;;;;;;;;;6.80;67.80;;;1.86;100.00;96582.97;5003706;28;19913;-51
2022/11/27 01:21:33;;;;;;;;;;;6.80;67.70;;;1.83;100.00;96578.06;5027945;28;20348;-52
2022/11/27 01:24:00;;;;;;;;;;;6.80;67.60;;;1.75;100.00;96576.34;5012604;28;20388;-53
2022/11/27 01:26:29;;;;;;;;;;;6.80;67.60;;;1.69;100.00;96576.28;5006896;28;19948;-50
2022/11/27 01:28:56;;;;;;;;;;;6.80;67.60;;;1.74;100.00;96579.19;4996398;28;20290;-50
2022/11/27 01:31:30;;;;;;;;;;;6.80;67.70;;;1.80;100.00;96581.06;5000522;28;19913;-51
2022/11/27 01:34:06;;;;;;;;;;;6.80;67.80;;;1.81;100.00;96582.69;5025679;28;19971;-50
2022/11/27 01:36:36;;;;;;;;;;;6.80;67.80;;;1.87;100.00;96579.31;5025082;28;20334;-51
2022/11/27 01:39:03;;;;;;;;;;;6.80;67.90;;;1.90;100.00;96583.41;5005321;28;19962;-48
2022/11/27 01:41:40;;;;;;;;;;;6.80;67.90;;;1.87;100.00;96583.78;5013032;28;19913;-51
2022/11/27 01:44:24;;;;;;;;;;;6.80;67.90;;;1.80;100.00;96583.69;5013126;28;19936;-57
2022/11/27 01:47:12;;;;;;;;;;;6.80;67.80;;;1.76;100.00;96567.50;5034946;28;20382;-50
2022/11/27 01:49:47;;;;;;;;;;;6.80;67.70;;;1.81;100.00;96561.66;5025670;28;19912;-49
2022/11/27 01:52:40;;;;;;;;;;;6.80;67.80;;;1.76;100.00;96556.19;5016997;28;19920;-55
2022/11/27 01:55:49;;;;;;;;;;;6.80;67.80;;;1.73;100.00;96546.03;5016199;28;19909;-50
2022/11/27 01:58:23;;;;;;;;;;;6.80;67.70;;;1.76;100.00;96540.41;5000224;28;20282;-48
2022/11/27 02:00:52;;;;;;;;;;;6.80;67.70;;;1.72;100.00;96534.69;5009040;28;19916;-48
2022/11/27 02:03:26;;;;;;;;;;;6.80;67.80;;;1.69;100.00;96526.38;5026315;28;19923;-47
2022/11/27 02:05:55;;;;;;;;;;;6.80;67.80;;;1.64;100.00;96526.94;5017929;28;19909;-47
2022/11/27 02:08:23;;;;;;;;;;;6.80;67.80;;;1.65;100.00;96530.38;4982031;28;19933;-49
2022/11/27 02:11:12;;;;;;;;;;;6.70;67.70;;;1.64;100.00;96515.63;4993815;28;19989;-49
2022/11/27 02:14:17;;;;;;;;;;;6.70;67.70;;;1.63;100.00;96522.69;4982689;28;19917;-49
2022/11/27 02:17:02;;;;;;;;;;;6.70;67.70;;;1.64;100.00;96515.63;4994614;28;20342;-49
2022/11/27 02:20:22;;;;;;;;;;;6.70;67.80;;;1.63;100.00;96520.06;5008319;28;19910;-48
2022/11/27 02:23:19;;;;;;;;;;;6.60;67.80;;;1.63;100.00;96514.81;4977430;28;19909;-53
2022/11/27 02:26:23;;;;;;;;;;;6.60;67.80;;;1.59;100.00;96513.53;4970746;28;19916;-53
2022/11/27 02:29:15;;;;;;;;;;;6.60;67.90;;;1.54;100.00;96518.56;4994230;28;19916;-49
2022/11/27 02:32:07;;;;;;;;;;;6.60;68.00;;;1.53;100.00;96520.34;4983477;28;19909;-48
2022/11/27 02:35:22;;;;;;;;;;;6.60;67.90;;;1.46;100.00;96508.94;4977105;28;20362;-51
2022/11/27 02:38:27;;;;;;;;;;;6.50;67.90;;;1.40;100.00;96504.44;4993115;28;20443;-47
2022/11/27 02:41:36;;;;;;;;;;;6.50;67.90;;;1.39;100.00;96514.13;4994477;28;19909;-48
2022/11/27 02:44:05;;;;;;;;;;;6.50;67.90;;;1.41;100.00;96515.75;4991123;28;19910;-51
2022/11/27 02:46:32;;;;;;;;;;;6.50;68.00;;;1.39;100.00;96514.13;4976902;28;19913;-55
2022/11/27 02:49:08;;;;;;;;;;;6.50;68.00;;;1.42;100.00;96522.66;4971150;28;19913;-50
2022/11/27 02:51:58;;;;;;;;;;;6.50;68.10;;;1.45;100.00;96520.47;4993290;28;20008;-56
2022/11/27 02:54:34;;;;;;;;;;;6.50;68.10;;;1.45;100.00;96514.41;4992132;28;20456;-53
2022/11/27 02:57:04;;;;;;;;;;;6.50;68.00;;;1.45;100.00;96512.59;4986839;28;20291;-53
2022/11/27 02:59:41;;;;;;;;;;;6.50;68.10;;;1.45;100.00;96512.59;4976363;28;20384;-48
2022/11/27 03:02:16;;;;;;;;;;;6.50;68.00;;;1.39;100.00;96519.38;4990613;28;20004;-48
2022/11/27 03:05:04;;;;;;;;;;;6.50;68.00;;;1.37;100.00;96516.13;4992700;28;19916;-52
2022/11/27 03:07:42;;;;;;;;;;;6.50;67.90;;;1.39;100.00;96513.31;4964175;28;20044;-54
2022/11/27 03:10:38;;;;;;;;;;;6.50;68.00;;;1.38;100.00;96512.50;4987944;28;19909;-52
2022/11/27 03:13:05;;;;;;;;;;;6.50;68.00;;;1.37;100.00;96510.88;4993525;28;19913;-50
2022/11/27 03:15:59;;;;;;;;;;;6.50;68.00;;;1.34;100.00;96511.22;4978450;28;19920;-50
2022/11/27 03:19:00;;;;;;;;;;;6.50;68.00;;;1.32;100.00;96504.56;4992128;28;19917;-49
2022/11/27 03:21:50;;;;;;;;;;;6.40;67.80;;;1.30;100.00;96494.22;4993717;28;19917;-47
2022/11/27 03:24:17;;;;;;;;;;;6.40;67.90;;;1.28;100.00;96488.34;4990434;28;19913;-55
2022/11/27 03:26:52;;;;;;;;;;;6.40;67.90;;;1.23;100.00;96490.72;5003505;28;19909;-48
2022/11/27 03:29:45;;;;;;;;;;;6.30;67.80;;;1.22;100.00;96496.94;5008061;28;19913;-48
2022/11/27 03:32:11;;;;;;;;;;;6.40;67.90;;;1.17;100.00;96486.22;4989419;28;19910;-51
2022/11/27 03:34:38;;;;;;;;;;;6.30;67.90;;;1.00;100.00;96493.44;4991654;28;19917;-54
2022/11/27 03:37:04;;;;;;;;;;;6.20;67.90;;;0.94;100.00;96486.31;5002655;28;19920;-56
2022/11/27 03:39:31;;;;;;;;;;;6.20;67.90;;;0.93;100.00;96490.72;4992885;28;19917;-48
2022/11/27 03:42:28;;;;;;;;;;;6.20;67.90;;;0.85;100.00;96490.03;5007413;28;19917;-56
2022/11/27 03:45:20;;;;;;;;;;;6.10;67.80;;;0.79;100.00;96485.50;4992353;28;19929;-53
2022/11/27 03:48:20;;;;;;;;;;;6.00;67.80;;;0.82;100.00;96485.97;4991898;28;19909;-48
2022/11/27 03:51:16;;;;;;;;;;;6.00;67.90;;;0.79;100.00;96498.63;4983113;28;20016;-49
2022/11/27 03:54:24;;;;;;;;;;;5.90;67.90;;;0.79;100.00;96499.44;4991427;28;19909;-47
2022/11/27 03:57:12;;;;;;;;;;;5.90;68.00;;;0.80;100.00;96487.94;4976341;28;19914;-50
2022/11/27 03:59:44;;;;;;;;;;;5.90;68.10;;;0.76;100.00;96491.94;4992183;28;20359;-47
2022/11/27 04:02:14;;;;;;;;;;;5.90;68.20;;;0.77;100.00;96487.50;5002895;28;19917;-52
2022/11/27 04:04:43;;;;;;;;;;;5.90;68.20;;;0.79;100.00;96496.00;5007421;28;19916;-50
2022/11/27 04:07:16;;;;;;;;;;;5.90;68.20;;;0.78;100.00;96489.09;5008184;23;19913;-51
2022/11/27 04:09:48;;;;;;;;;;;5.90;68.10;;;0.76;100.00;96484.06;5022526;28;19921;-49
2022/11/27 04:12:13;;;;;;;;;;;5.90;68.10;;;0.76;100.00;96480.63;5014432;28;19923;-49
2022/11/27 04:14:39;;;;;;;;;;;5.90;68.10;;;0.77;100.00;96487.50;5051434;28;19912;-47
2022/11/27 04:17:05;;;;;;;;;;;5.90;68.00;;;0.75;100.00;96489.47;5033025;28;19919;-50
2022/11/27 04:19:37;;;;;;;;;;;5.90;68.00;;;0.71;100.00;96488.22;5006307;28;19913;-47
2022/11/27 04:22:03;;;;;;;;;;;5.90;68.00;;;0.70;100.00;96492.66;5030935;28;19909;-50
2022/11/27 04:24:34;;;;;;;;;;;5.90;68.00;;;0.61;100.00;96483.25;5028880;28;19912;-47
2022/11/27 04:27:00;;;;;;;;;;;5.90;67.90;;;0.60;100.00;96484.25;4990265;28;20402;-48
2022/11/27 04:29:37;;;;;;;;;;;5.90;67.90;;;0.60;100.00;96487.66;5003606;28;19909;-50
2022/11/27 04:32:04;;;;;;;;;;;5.90;67.90;;;0.58;100.00;96480.97;5010310;28;19909;-52
2022/11/27 04:34:36;;;;;;;;;;;5.90;67.90;;;0.58;100.00;96479.16;5013639;28;19908;-50
2022/11/27 04:37:02;;;;;;;;;;;5.80;67.90;;;0.58;100.00;96484.41;5011213;28;19935;-47
2022/11/27 04:39:27;;;;;;;;;;;5.80;67.90;;;0.58;100.00;96483.59;5030901;28;19909;-48
2022/11/27 04:41:53;;;;;;;;;;;5.80;67.90;;;0.53;100.00;96467.56;5029573;28;19920;-47
2022/11/27 04:44:22;;;;;;;;;;;5.80;67.90;;;0.55;100.00;96473.47;4992712;28;19913;-47
2022/11/27 04:46:49;;;;;;;;;;;5.80;67.90;;;0.51;100.00;96473.00;5003134;28;20394;-48
2022/11/27 04:49:14;;;;;;;;;;;5.80;67.80;;;0.49;100.00;96475.00;5005013;28;19999;-50
2022/11/27 04:51:40;;;;;;;;;;;5.70;67.80;;;0.49;100.00;96479.44;5012461;28;20003;-49
2022/11/27 04:54:06;;;;;;;;;;;5.70;67.80;;;0.48;100.00;96478.63;4993061;28;20264;-46
2022/11/27 04:56:35;;;;;;;;;;;5.70;67.80;;;0.42;100.00;96476.72;5002852;28;19920;-47
2022/11/27 04:59:01;;;;;;;;;;;5.70;67.80;;;0.41;100.00;96483.75;4998908;28;19985;-47
2022/11/27 05:01:26;;;;;;;;;;;5.70;67.90;;;0.32;100.00;96484.84;5009865;28;19978;-47
2022/11/27 05:03:52;;;;;;;;;;;5.70;68.70;;;0.22;100.00;96487.72;4996394;28;20003;-54
2022/11/27 05:06:21;;;;;;;;;;;5.70;67.80;;;0.24;100.00;96492.75;4991914;28;19916;-49
2022/11/27 05:09:00;;;;;;;;;;;5.60;67.80;;;0.28;100.00;96499.25;5026807;28;19942;-51
2022/11/27 05:11:29;;;;;;;;;;;5.60;67.80;;;0.30;100.00;96505.16;5030291;28;19940;-48
2022/11/27 05:16:40;;;;;;;;;;;5.60;68.00;;;0.28;100.00;96494.03;5014615;28;19934;-48
2022/11/27 05:19:09;;;;;;;;;;;5.50;67.90;;;0.30;100.00;96491.25;5000973;28;20004;-48
2022/11/27 05:21:36;;;;;;;;;;;5.50;68.00;;;0.24;100.00;96495.38;4992455;28;19909;-49
2022/11/27 05:24:03;;;;;;;;;;;5.50;68.00;;;0.13;100.00;96501.06;4975643;28;19928;-53
2022/11/27 05:26:29;;;;;;;;;;;5.50;68.00;;;0.17;100.00;96497.91;5012747;28;20000;-49
2022/11/27 05:28:55;;;;;;;;;;;5.50;68.00;;;0.20;100.00;96499.34;5029814;28;20003;-48
2022/11/27 05:31:27;;;;;;;;;;;5.50;68.00;;;0.21;100.00;96506.22;4989569;28;19951;-47
2022/11/27 05:33:53;;;;;;;;;;;5.50;68.00;;;0.11;100.00;96498.59;5012603;28;19920;-48
2022/11/27 05:36:19;;;;;;;;;;;5.50;68.00;;;0.13;100.00;96494.00;5010572;28;20552;-51
2022/11/27 05:38:51;;;;;;;;;;;5.50;68.00;;;0.19;100.00;96482.00;4968371;28;19909;-47
2022/11/27 05:41:23;;;;;;;;;;;5.50;68.00;;;0.19;100.00;96479.41;4992484;28;19951;-47
2022/11/27 05:43:58;;;;;;;;;;;5.40;68.00;;;0.23;100.00;96476.22;5023434;28;19944;-50
2022/11/27 05:46:24;;;;;;;;;;;5.40;68.00;;;0.27;100.00;96473.25;5012391;28;19915;-47
2022/11/27 05:48:50;;;;;;;;;;;5.40;68.20;;;0.29;100.00;96477.31;5010102;28;20375;-48
2022/11/27 05:51:28;;;;;;;;;;;5.40;68.30;;;0.28;100.00;96474.88;5009934;28;19909;-48
2022/11/27 05:54:00;;;;;;;;;;;5.40;68.30;;;0.28;100.00;96464.38;4989300;28;19923;-47
2022/11/27 05:56:25;;;;;;;;;;;5.40;68.30;;;0.28;100.00;96465.19;4976003;28;20394;-48
2022/11/27 05:58:51;;;;;;;;;;;5.40;68.30;;;0.27;100.00;96460.97;4991401;28;19917;-48
2022/11/27 06:01:18;;;;;;;;;;;5.40;68.30;;;0.21;100.00;96467.72;5009714;28;19909;-48
2022/11/27 06:03:50;;;;;;;;;;;5.40;68.30;;;0.08;100.00;96464.91;4993200;28;19917;-52
2022/11/27 06:06:18;;;;;;;;;;;5.40;68.20;;;-0.04;100.00;96472.34;4992398;28;20346;-53
2022/11/27 06:08:45;;;;;;;;;;;5.40;68.10;;;0.00;100.00;96475.47;5024268;28;19916;-54
2022/11/27 06:11:23;;;;;;;;;;;5.30;68.10;;;0.01;100.00;96473.66;5012037;28;20263;-47
2022/11/27 06:13:49;;;;;;;;;;;5.30;68.10;;;0.01;100.00;96465.78;5010745;28;19912;-48
2022/11/27 06:16:23;;;;;;;;;;;5.30;68.20;;;0.02;100.00;96459.56;4995644;28;19920;-47
2022/11/27 06:18:54;;;;;;;;;;;5.30;68.20;;;0.03;100.00;96471.66;4993451;28;19919;-50
2022/11/27 06:21:22;;;;;;;;;;;5.20;68.20;;;0.04;100.00;96471.50;5028584;28;19909;-50
2022/11/27 06:23:52;;;;;;;;;;;5.30;68.30;;;0.06;100.00;96487.81;5011446;28;20392;-53
2022/11/27 06:26:25;;;;;;;;;;;5.30;68.30;;;0.05;100.00;96488.81;4992582;28;19917;-48
2022/11/27 06:28:51;;;;;;;;;;;5.30;68.30;;;0.04;100.00;96487.22;5012023;28;20007;-52
2022/11/27 06:31:24;;;;;;;;;;;5.30;68.30;;;0.04;100.00;96478.53;5009082;28;19954;-49
2022/11/27 06:33:52;;;;;;;;;;;5.30;68.30;;;0.00;100.00;96478.06;5013016;28;19932;-50
2022/11/27 06:36:20;;;;;;;;;;;5.30;68.20;;;0.02;100.00;96483.13;4995154;28;19913;-50
2022/11/27 06:38:46;;;;;;;;;;;5.30;68.10;;;0.01;100.00;96477.06;5021638;28;20422;-46
2022/11/27 06:41:19;;;;;;;;;;;5.30;68.20;;;0.02;100.00;96472.66;5015053;28;20359;-48
2022/11/27 06:43:45;;;;;;;;;;;5.30;68.20;;;0.01;100.00;96477.06;4998897;28;19909;-50
2022/11/27 06:46:16;;;;;;;;;;;5.30;68.20;;;0.03;100.00;96490.78;5014884;28;19912;-47
2022/11/27 06:48:44;;;;;;;;;;;5.30;68.20;;;0.04;100.00;96492.44;4997575;28;20363;-50
2022/11/27 06:51:19;;;;;;;;;;;5.30;68.20;;;0.03;100.00;96496.03;5014551;28;19909;-47
2022/11/27 06:53:52;;;;;;;;;;;5.40;68.30;;;0.07;100.00;96494.72;5015713;28;19999;-47
2022/11/27 06:56:24;;;;;;;;;;;5.30;68.20;;;0.09;100.00;96487.47;4979436;28;19917;-46
2022/11/27 06:58:56;;;;;;;;;;;5.40;68.20;;;0.11;100.00;96484.69;4982011;28;19913;-47
2022/11/27 07:01:25;;;;;;;;;;;5.40;68.20;;;0.16;100.00;96477.13;5014459;28;20318;-46
2022/11/27 07:03:55;;;;;;;;;;;5.40;69.10;;;0.14;100.00;96479.91;5015530;28;19946;-49
2022/11/27 07:06:27;;;;;;;;;;;5.40;68.30;;;0.18;100.00;96469.88;5030557;28;19963;-47
2022/11/27 07:08:54;;;;;;;;;;;5.40;68.30;;;0.19;100.00;96463.66;5013802;28;19927;-51
2022/11/27 07:11:24;;;;;;;;;;;5.40;68.30;;;0.20;100.00;96466.09;5014163;28;19909;-47
2022/11/27 07:13:53;;;;;;;;;;;5.50;68.30;;;0.23;100.00;96455.25;5014361;28;20339;-47
2022/11/27 07:16:19;;;;;;;;;;;5.50;68.20;;;0.25;100.00;96452.44;5015444;28;19917;-47
2022/11/27 07:18:49;;;;;;;;;;;5.50;68.10;;;0.27;100.00;96452.28;4991417;28;20403;-50
2022/11/27 07:21:19;;;;;;;;;;;5.60;68.20;;;0.24;100.00;96453.44;5012224;28;19955;-50
2022/11/27 07:23:45;;;;;;;;;;;5.60;68.00;;;0.25;100.00;96451.63;5012541;28;20062;-54
2022/11/27 07:26:15;;;;;;;;;;;5.60;68.00;;;0.27;100.00;96452.28;4997301;28;19913;-50
2022/11/27 07:28:42;;;;;;;;;;;5.70;67.90;;;0.31;100.00;96458.78;5014871;28;20404;-49
2022/11/27 07:31:10;;;;;;;;;;;5.70;67.80;;;0.36;100.00;96454.63;5019931;28;19966;-54
2022/11/27 07:33:36;;;;;;;;;;;5.80;67.90;;;0.33;100.00;96455.00;4918216;28;19997;-48
2022/11/27 07:36:19;;;;;;;;;;;5.80;67.80;;;0.31;100.00;96461.41;5024169;28;19959;-53
2022/11/27 07:38:45;;;;;;;;;;;5.90;67.80;;;0.35;100.00;96465.31;4985117;28;19982;-49
2022/11/27 07:41:12;;;;;;;;;;;5.90;67.70;;;0.37;100.00;96471.19;5012165;28;20329;-47
2022/11/27 07:43:40;;;;;;;;;;;5.90;67.70;;;0.42;100.00;96471.47;4995313;28;20008;-52
2022/11/27 07:46:11;;;;;;;;;;;6.00;67.80;;;0.50;100.00;96470.56;4993518;28;19913;-48
2022/11/27 07:48:37;;;;;;;;;;;6.10;67.70;;;0.55;100.00;96458.53;5014809;28;19923;-47
2022/11/27 07:51:08;;;;;;;;;;;6.20;67.60;;;0.63;100.00;96445.34;4996531;28;20003;-47
2022/11/27 07:53:39;;;;;;;;;;;6.20;67.60;;;0.68;100.00;96452.66;5012090;28;19916;-49
2022/11/27 07:56:07;;;;;;;;;;;6.20;67.50;;;0.74;100.00;96456.38;4996779;28;19919;-48
2022/11/27 07:58:33;;;;;;;;;;;6.20;67.60;;;0.75;100.00;96442.25;5003012;28;20270;-54
2022/11/27 08:00:59;;;;;;;;;;;6.30;67.50;;;0.73;100.00;96445.09;5014471;28;19917;-47
2022/11/27 08:03:25;;;;;;;;;;;6.30;67.50;;;0.72;100.00;96437.38;5001425;28;19956;-51
2022/11/27 08:05:51;;;;;;;;;;;6.30;67.40;;;0.72;100.00;96447.88;5005628;28;19947;-47
2022/11/27 08:08:17;;;;;;;;;;;6.30;67.40;;;0.69;100.00;96430.72;5029179;28;19924;-50
2022/11/27 08:10:49;;;;;;;;;;;6.30;67.30;;;0.72;100.00;96442.63;4997201;28;19913;-48
2022/11/27 08:13:14;;;;;;;;;;;6.30;67.30;;;0.75;100.00;96448.31;5012678;28;19995;-47
2022/11/27 08:15:40;;;;;;;;;;;6.30;67.30;;;0.80;100.00;96442.53;4992374;28;19912;-47
2022/11/27 08:18:06;;;;;;;;;;;6.40;67.50;;;0.76;100.00;96434.22;5023006;28;19966;-53
2022/11/27 08:20:35;;;;;;;;;;;6.40;67.40;;;0.84;100.00;96431.50;4991341;28;19913;-49
2022/11/27 08:23:04;;;;;;;;;;;6.40;67.50;;;0.87;100.00;96430.31;4984722;28;20295;-52
2022/11/27 08:25:31;;;;;;;;;;;6.50;67.50;;;0.87;100.00;96428.50;5010716;28;20444;-51
2022/11/27 08:27:56;;;;;;;;;;;6.50;67.50;;;0.96;100.00;96439.72;4994821;28;19916;-47
2022/11/27 08:30:22;;;;;;;;;;;6.50;67.50;;;0.97;100.00;96440.53;5010204;28;19909;-48
2022/11/27 08:32:48;;;;;;;;;;;6.60;67.50;;;1.01;100.00;96439.19;5013497;28;20003;-50
2022/11/27 08:35:17;;;;;;;;;;;6.60;67.50;;;1.03;100.00;96443.22;5003316;28;20012;-50
2022/11/27 08:37:43;;;;;;;;;;;6.60;67.50;;;1.08;100.00;96440.06;5018885;28;20054;-56
2022/11/27 08:40:12;;;;;;;;;;;6.70;67.50;;;1.13;100.00;96451.66;5009859;28;20007;-52
2022/11/27 08:42:40;;;;;;;;;;;6.70;67.50;;;1.22;100.00;96454.94;4998286;28;19909;-48
2022/11/27 08:45:09;;;;;;;;;;;6.70;67.50;;;1.26;100.00;96447.53;5003296;28;19913;-52
2022/11/27 08:47:35;;;;;;;;;;;6.80;67.50;;;1.33;100.00;96443.97;5010284;28;19909;-48
2022/11/27 08:50:05;;;;;;;;;;;6.90;67.50;;;1.38;100.00;96436.38;5011094;28;19909;-52
2022/11/27 08:52:34;;;;;;;;;;;7.00;67.50;;;1.46;100.00;96439.88;4978096;28;19909;-50
2022/11/27 08:55:00;;;;;;;;;;;7.00;67.40;;;1.56;100.00;96435.94;5000646;28;20367;-47
2022/11/27 08:57:28;;;;;;;;;;;7.20;67.50;;;1.67;100.00;96431.22;5012630;28;19917;-56
2022/11/27 08:59:54;;;;;;;;;;;7.20;67.40;;;1.72;100.00;96423.56;5013313;28;19913;-50
2022/11/27 09:02:27;;;;;;;;;;;7.40;67.40;;;1.83;100.00;96421.25;4994493;28;19909;-50
2022/11/27 09:05:05;;;;;;;;;;;7.50;67.30;;;1.94;100.00;96422.53;4993791;28;19917;-51
2022/11/27 09:07:30;;;;;;;;;;;7.60;67.30;;;2.00;100.00;96416.53;4999592;28;19917;-49
2022/11/27 09:09:56;;;;;;;;;;;7.70;67.20;;;2.07;100.00;96414.78;4996798;28;19921;-50
2022/11/27 09:12:26;;;;;;;;;;;7.90;67.10;;;2.06;100.00;96405.25;4989810;28;20127;-49
2022/11/27 09:14:52;;;;;;;;;;;8.00;66.90;;;2.17;100.00;96409.19;4991609;28;19951;-47
2022/11/27 09:17:18;;;;;;;;;;;8.10;66.80;;;2.29;100.00;96406.84;4991065;28;19961;-49
2022/11/27 09:19:44;;;;;;;;;;;8.20;66.70;;;2.37;100.00;96413.75;4996073;28;19948;-49
2022/11/27 09:22:10;;;;;;;;;;;8.30;66.60;;;2.54;100.00;96423.78;5002762;28;19909;-54
2022/11/27 09:24:36;;;;;;;;;;;8.50;66.70;;;2.52;100.00;96423.16;5007348;28;20299;-51
2022/11/27 09:27:02;;;;;;;;;;;8.50;66.50;;;2.49;100.00;96428.00;4992173;28;19916;-50
2022/11/27 09:29:28;;;;;;;;;;;8.50;66.30;;;2.54;100.00;96428.25;5008368;28;19913;-52
2022/11/27 09:32:02;;;;;;;;;;;8.50;66.30;;;2.55;100.00;96424.59;5002455;28;20312;-49
2022/11/27 09:34:28;;;;;;;;;;;8.60;66.30;;;2.53;100.00;96426.59;4995612;28;19963;-47
2022/11/27 09:37:01;;;;;;;;;;;8.60;66.90;;;2.64;100.00;96431.34;4989365;28;19912;-50
2022/11/27 09:39:32;;;;;;;;;;;8.70;66.10;;;2.70;100.00;96427.94;5009561;28;20034;-52
2022/11/27 09:42:02;;;;;;;;;;;8.80;66.00;;;2.73;100.00;96416.22;5008964;28;19909;-52
2022/11/27 09:44:54;;;;;;;;;;;8.90;65.90;;;2.85;100.00;96401.50;5007234;28;19917;-49
2022/11/27 09:47:42;;;;;;;;;;;9.00;65.80;;;2.87;100.00;96404.72;5008151;28;19909;-48
2022/11/27 09:50:21;;;;;;;;;;;9.10;65.90;;;2.98;100.00;96398.09;4991794;28;19991;-52
2022/11/27 09:53:19;;;;;;;;;;;9.10;65.80;;;3.08;100.00;96395.91;5009049;28;19909;-50
2022/11/27 09:55:50;;;;;;;;;;;9.30;65.90;;;3.11;100.00;96392.88;4994954;28;19921;-50
2022/11/27 09:58:41;;;;;;;;;;;9.50;65.90;;;3.25;100.00;96384.00;4973018;28;19920;-48
2022/11/27 10:01:23;;;;;;;;;;;9.60;65.70;;;3.33;100.00;96375.13;4976829;28;19909;-50
2022/11/27 10:03:52;;;;;;;;;;;9.80;65.50;;;3.45;100.00;96376.16;4988530;28;20095;-48
2022/11/27 10:06:29;;;;;;;;;;;10.00;65.40;;;3.52;99.81;96367.44;4990222;28;20354;-53
2022/11/27 10:09:26;;;;;;;;;;;10.20;65.20;;;3.60;98.86;96364.59;5049214;22;19928;-56
2022/11/27 10:12:24;;;;;;;;;;;10.30;65.10;;;3.61;97.94;96380.22;5051335;28;19947;-56
2022/11/27 10:15:16;;;;;;;;;;;10.30;64.80;;;3.77;98.37;96371.13;5039281;28;19962;-58
2022/11/27 10:18:09;;;;;;;;;;;10.30;64.90;;;3.87;97.44;96360.97;5012746;28;19917;-58
2022/11/27 10:20:59;;;;;;;;;;;10.40;64.90;;;4.00;98.08;96352.25;5017440;28;20019;-57
2022/11/27 10:23:42;;;;;;;;;;;10.50;64.90;;;4.12;97.22;96336.63;4991858;28;20455;-58
2022/11/27 10:26:30;;;;;;;;;;;10.60;64.90;;;4.26;96.39;96351.41;5015791;28;19916;-57
2022/11/27 10:29:11;;;;;;;;;;;10.80;65.00;;;4.45;97.50;96348.91;4984186;28;20004;-55
2022/11/27 10:31:50;;;;;;;;;;;11.00;65.00;;;4.69;96.01;96350.88;5018580;28;19909;-58
2022/11/27 10:34:36;;;;;;;;;;;11.20;65.00;;;4.74;93.79;96339.72;5013328;28;19909;-55
2022/11/27 10:37:25;;;;;;;;;;;11.50;64.90;;;4.97;92.77;96326.00;5000986;28;19913;-54
2022/11/27 10:40:11;;;;;;;;;;;11.70;64.90;;;5.13;90.42;96330.78;5032860;28;19913;-57
2022/11/27 10:43:20;;;;;;;;;;;11.90;64.60;;;5.15;89.75;96323.47;5005089;28;19909;-58
2022/11/27 10:45:55;;;;;;;;;;;12.20;64.30;;;5.33;88.52;96318.28;4967046;28;20007;-56
2022/11/27 10:48:26;;;;;;;;;;;12.40;64.00;;;5.48;87.02;96303.94;4996326;28;19941;-55
2022/11/27 10:50:59;;;;;;;;;;;12.50;63.70;;;5.55;87.28;96304.72;5000369;28;20318;-56
2022/11/27 10:53:36;;;;;;;;;;;12.70;63.50;;;5.76;86.52;96303.53;4996329;28;19909;-56
2022/11/27 10:56:10;;;;;;;;;;;12.70;63.30;;;5.89;85.31;96295.50;5005396;28;19913;-55
2022/11/27 10:59:21;;;;;;;;;;;12.90;63.10;;;6.03;84.36;96288.25;4995673;28;20007;-57
2022/11/27 11:02:27;;;;;;;;;;;12.90;62.70;;;6.18;83.08;96288.72;4948999;28;20157;-57
2022/11/27 11:04:56;;;;;;;;;;;13.00;62.60;;;6.20;81.15;96286.66;4963688;28;20162;-57
2022/11/27 11:07:28;;;;;;;;;;;13.10;62.40;;;6.30;82.00;96286.16;4974184;28;19910;-57
2022/11/27 11:09:56;;;;;;;;;;;13.10;62.20;;;6.41;80.55;96284.63;4972079;28;19961;-58
2022/11/27 11:12:23;;;;;;;;;;;13.20;62.20;;;6.54;80.36;96292.41;4955809;28;19976;-56
2022/11/27 11:15:10;;;;;;;;;;;13.20;62.00;;;6.54;79.20;96289.75;4962206;28;20331;-56
2022/11/27 11:17:39;;;;;;;;;;;13.30;62.00;;;6.60;78.19;96280.13;4954208;28;19921;-59
2022/11/27 11:20:22;;;;;;;;;;;13.30;61.70;;;6.63;80.64;96280.47;4954889;28;19953;-58
2022/11/27 11:22:48;;;;;;;;;;;13.40;61.60;;;6.56;80.72;96269.16;4964216;28;19916;-58
2022/11/27 11:25:20;;;;;;;;;;;13.40;61.40;;;6.64;80.99;96263.59;4952912;28;19910;-58
2022/11/27 11:27:50;;;;;;;;;;;13.50;61.50;;;6.77;79.29;96253.81;4954350;28;19913;-57
2022/11/27 11:30:27;;;;;;;;;;;13.60;61.40;;;6.81;80.02;96247.88;4969783;28;19920;-58
2022/11/27 11:33:05;;;;;;;;;;;13.60;61.20;;;6.96;80.95;96247.47;5002111;28;19917;-56
2022/11/27 11:35:36;;;;;;;;;;;13.70;61.30;;;6.94;78.11;96253.00;4994025;28;19962;-58
2022/11/27 11:38:16;;;;;;;;;;;13.80;61.20;;;6.99;76.15;96244.38;5015390;28;19968;-55
2022/11/27 11:41:02;;;;;;;;;;;13.90;61.00;;;7.09;79.41;96236.69;4995947;28;20225;-57
2022/11/27 11:43:36;;;;;;;;;;;14.00;60.90;;;7.21;77.71;96233.25;4986016;28;19933;-58
2022/11/27 11:46:14;;;;;;;;;;;14.10;60.80;;;7.25;77.31;96240.53;4994213;28;20073;-56
2022/11/27 11:48:59;;;;;;;;;;;14.10;60.60;;;7.14;76.62;96225.41;5014506;28;19916;-56
2022/11/27 11:52:06;;;;;;;;;;;14.30;60.40;;;7.18;73.81;96221.28;5014126;28;20018;-57
2022/11/27 11:54:58;;;;;;;;;;;14.30;60.10;;;7.26;75.31;96205.03;5023904;28;20003;-55
2022/11/27 11:57:55;;;;;;;;;;;14.40;60.00;;;7.40;74.08;96210.94;5002063;28;19943;-58
2022/11/27 12:00:48;;;;;;;;;;;14.40;59.80;;;7.53;73.85;96213.38;5010885;28;20007;-56